createdAt,value
2023-04-11T00:00:03.074Z,66.2
2023-04-11T00:03:03.714Z,66.2
2023-04-11T00:06:02.970Z,66.2
2023-04-11T00:09:02.929Z,66.2
2023-04-11T00:12:02.940Z,72.2
2023-04-11T00:15:02.980Z,72.2
2023-04-11T00:18:03.208Z,72.2
2023-04-11T00:21:02.920Z,73.4
2023-04-11T00:24:02.973Z,73.4
2023-04-11T00:27:02.966Z,73.4
2023-04-11T00:30:03.085Z,73.4
2023-04-11T00:33:03.098Z,73.4
2023-04-11T00:36:03.241Z,76.3
2023-04-11T00:39:02.911Z,76.3
2023-04-11T00:42:02.941Z,77.2
2023-04-11T00:45:02.951Z,77.2
2023-04-11T00:48:03.071Z,77.8
2023-04-11T00:51:02.908Z,77.8
2023-04-11T00:54:02.979Z,78.2
2023-04-11T00:57:02.931Z,78.2
2023-04-11T01:00:02.985Z,78.2
2023-04-11T01:03:03.365Z,77.7
2023-04-11T01:06:02.985Z,77.7
2023-04-11T01:09:02.939Z,77.7
2023-04-11T01:12:02.998Z,77.3
2023-04-11T01:15:03.493Z,77.3
2023-04-11T01:18:03.098Z,77.3
2023-04-11T01:21:02.999Z,78.7
2023-04-11T01:24:02.951Z,79.1
2023-04-11T01:27:02.938Z,79.1
2023-04-11T01:30:02.940Z,79.5
2023-04-11T01:33:03.041Z,79.5
2023-04-11T01:36:03.034Z,79.5
2023-04-11T01:39:02.946Z,79.5
2023-04-11T01:42:02.914Z,79.5
2023-04-11T01:45:02.958Z,79.5
2023-04-11T01:48:03.176Z,80.6
2023-04-11T01:51:02.943Z,80.6
2023-04-11T01:54:02.929Z,80.6
2023-04-11T01:57:02.915Z,80.6
2023-04-11T02:00:02.984Z,80.6
2023-04-11T02:03:03.313Z,80.6
2023-04-11T02:06:02.926Z,80.6
2023-04-11T02:09:02.902Z,80.6
2023-04-11T02:12:03.046Z,80.6
2023-04-11T02:15:03.141Z,80.6
2023-04-11T02:18:03.163Z,80.6
2023-04-11T02:21:02.971Z,80.6
2023-04-11T02:24:03.234Z,80.6
2023-04-11T02:27:02.945Z,80.6
2023-04-11T02:30:03.042Z,80.9
2023-04-11T02:33:03.218Z,80.9
2023-04-11T02:36:03.111Z,80.9
2023-04-11T02:39:02.951Z,81.1
2023-04-11T02:42:02.972Z,81.1
2023-04-11T02:45:03.061Z,80.9
2023-04-11T02:48:03.090Z,80.9
2023-04-11T02:51:02.907Z,80.9
2023-04-11T02:54:02.914Z,80.9
2023-04-11T02:57:02.930Z,80.9
2023-04-11T03:00:02.987Z,80.9
2023-04-11T03:03:03.328Z,80.9
2023-04-11T03:06:02.918Z,80.9
2023-04-11T03:09:02.998Z,80
2023-04-11T03:12:02.893Z,79.5
2023-04-11T03:15:02.975Z,79.5
2023-04-11T03:18:03.034Z,79.2
2023-04-11T03:21:02.976Z,79.2
2023-04-11T03:24:02.911Z,79.2
2023-04-11T03:27:02.925Z,79.2
2023-04-11T03:30:03.015Z,79.2
2023-04-11T03:33:03.284Z,79.2
2023-04-11T03:36:03.011Z,79.2
2023-04-11T03:39:02.961Z,79.2
2023-04-11T03:42:02.912Z,79.2
2023-04-11T03:45:02.962Z,79.2
2023-04-11T03:48:03.131Z,78.7
2023-04-11T03:51:02.992Z,78.7
2023-04-11T03:54:02.916Z,78.7
2023-04-11T03:57:02.915Z,78.7
2023-04-11T04:00:03.130Z,78.7
2023-04-11T04:03:03.649Z,78.7
2023-04-11T04:06:02.964Z,78.7
2023-04-11T04:09:03.038Z,78.7
2023-04-11T04:12:02.913Z,78.7
2023-04-11T04:15:03.008Z,78.7
2023-04-11T04:18:03.150Z,78.7
2023-04-11T04:21:02.958Z,78.7
2023-04-11T04:24:02.952Z,78.7
2023-04-11T04:27:02.949Z,78.7
2023-04-11T04:30:06.953Z,78.7
2023-04-11T04:33:03.032Z,78.7
2023-04-11T04:36:03.077Z,78.7
2023-04-11T04:39:02.984Z,78.7
2023-04-11T04:42:02.984Z,78.7
2023-04-11T04:45:03.383Z,78.7
2023-04-11T04:48:03.090Z,78.7
2023-04-11T04:51:03.024Z,78.7
2023-04-11T04:54:03.067Z,78.7
2023-04-11T04:57:02.954Z,78.6
2023-04-11T05:00:03.141Z,78.6
2023-04-11T05:03:03.505Z,78.6
2023-04-11T05:06:03.038Z,78.6
2023-04-11T05:09:02.946Z,78.6
2023-04-11T05:12:03.260Z,78.6
2023-04-11T05:15:02.994Z,78.6
2023-04-11T05:18:03.041Z,78.6
2023-04-11T05:21:02.980Z,78.7
2023-04-11T05:24:02.982Z,78.7
2023-04-11T05:27:03.008Z,78.7
2023-04-11T05:30:03.384Z,78.7
2023-04-11T05:33:03.110Z,78.1
2023-04-11T05:36:03.030Z,78.1
2023-04-11T05:39:03.029Z,78.1
2023-04-11T05:42:02.914Z,78.1
2023-04-11T05:45:02.914Z,74.9
2023-04-11T05:48:03.166Z,74.9
2023-04-11T05:51:03.057Z,74.9
2023-04-11T05:54:02.994Z,75.2
2023-04-11T05:57:03.005Z,75.2
2023-04-11T06:00:03.061Z,75.5
2023-04-11T06:03:03.401Z,75.5
2023-04-11T06:06:02.991Z,75.5
2023-04-11T06:09:02.967Z,75.5
2023-04-11T06:12:02.940Z,75.5
2023-04-11T06:15:03.012Z,75.5
2023-04-11T06:18:03.113Z,75.5
2023-04-11T06:21:02.971Z,75.5
2023-04-11T06:24:02.943Z,75.5
2023-04-11T06:27:02.988Z,75.5
2023-04-11T06:30:02.980Z,77.4
2023-04-11T06:33:03.145Z,77.4
2023-04-11T06:36:05.655Z,77.4
2023-04-11T06:39:02.996Z,77.4
2023-04-11T06:42:03.001Z,77.4
2023-04-11T06:45:03.136Z,77.4
2023-04-11T06:48:03.094Z,77.4
2023-04-11T06:51:03.072Z,78
2023-04-11T06:54:03.000Z,78
2023-04-11T06:57:02.991Z,78
2023-04-11T07:00:03.349Z,78
2023-04-11T07:03:03.579Z,78
2023-04-11T07:06:02.960Z,78
2023-04-11T07:09:03.012Z,78
2023-04-11T07:12:03.021Z,78
2023-04-11T07:15:02.989Z,78
2023-04-11T07:18:03.148Z,78
2023-04-11T07:21:02.979Z,78
2023-04-11T07:24:03.301Z,76.6
2023-04-11T07:27:03.129Z,76.6
2023-04-11T07:30:02.981Z,75.6
2023-04-11T07:33:03.124Z,73.6
2023-04-11T07:36:03.129Z,73.8
2023-04-11T07:39:02.970Z,74.2
2023-04-11T07:42:03.029Z,75.8
2023-04-11T07:45:02.995Z,77.7
2023-04-11T07:48:03.132Z,77.7
2023-04-11T07:51:03.018Z,77.7
2023-04-11T07:54:03.027Z,77.7
2023-04-11T07:57:02.904Z,77.7
2023-04-11T08:00:03.103Z,77.7
2023-04-11T08:03:03.458Z,77.7
2023-04-11T08:06:03.091Z,77.7
2023-04-11T08:09:03.067Z,77.7
2023-04-11T08:12:03.003Z,77.7
2023-04-11T08:15:03.044Z,77.7
2023-04-11T08:18:03.291Z,77.7
2023-04-11T08:21:03.038Z,77.7
2023-04-11T08:24:03.043Z,82
2023-04-11T08:27:03.009Z,82
2023-04-11T08:30:03.082Z,82
2023-04-11T08:33:03.110Z,82
2023-04-11T08:36:03.137Z,82
2023-04-11T08:39:02.996Z,82
2023-04-11T08:42:03.085Z,79.5
2023-04-11T08:45:03.134Z,79.5
2023-04-11T08:48:03.192Z,79.5
2023-04-11T08:51:03.008Z,79.5
2023-04-11T08:54:03.042Z,79.5
2023-04-11T08:57:02.991Z,79.5
2023-04-11T09:00:03.093Z,79.5
2023-04-11T09:03:03.361Z,79.5
2023-04-11T09:06:02.939Z,79.5
2023-04-11T09:09:03.017Z,79.5
2023-04-11T09:12:03.005Z,79.5
2023-04-11T09:15:03.065Z,77
2023-04-11T09:18:03.671Z,77
2023-04-11T09:21:03.068Z,77
2023-04-11T09:24:03.000Z,77
2023-04-11T09:27:03.003Z,77
2023-04-11T09:30:03.006Z,77
2023-04-11T09:33:03.081Z,74.4
2023-04-11T09:36:03.202Z,74.4
2023-04-11T09:39:02.962Z,74.4
2023-04-11T09:42:03.055Z,74.4
2023-04-11T09:45:03.050Z,74.4
2023-04-11T09:48:03.168Z,74.4
2023-04-11T09:51:02.950Z,74.4
2023-04-11T09:54:03.007Z,74.4
2023-04-11T09:57:03.070Z,74.4
2023-04-11T10:00:02.991Z,74.4
2023-04-11T10:03:03.569Z,74.4
2023-04-11T10:06:03.033Z,74.4
2023-04-11T10:09:02.979Z,74.4
2023-04-11T10:12:02.924Z,71
2023-04-11T10:15:03.006Z,71
2023-04-11T10:18:03.261Z,71
2023-04-11T10:21:03.005Z,71
2023-04-11T10:24:02.944Z,71
2023-04-11T10:27:03.007Z,71
2023-04-11T10:30:03.069Z,71
2023-04-11T10:33:03.366Z,71
2023-04-11T10:36:03.163Z,71
2023-04-11T10:39:02.966Z,71
2023-04-11T10:42:03.014Z,71
2023-04-11T10:45:02.949Z,71
2023-04-11T10:48:03.378Z,71
2023-04-11T10:51:02.970Z,66.9
2023-04-11T10:54:04.772Z,66.9
2023-04-11T10:57:02.951Z,66.9
2023-04-11T11:03:03.375Z,63.7
2023-04-11T11:06:02.981Z,63.7
2023-04-11T11:09:03.000Z,63.7
2023-04-11T11:12:02.979Z,63.7
2023-04-11T11:15:03.090Z,63.7
2023-04-11T11:18:03.111Z,63.7
2023-04-11T11:21:03.242Z,63.7
2023-04-11T11:24:02.976Z,63.7
2023-04-11T11:27:03.137Z,63.7
2023-04-11T11:30:03.015Z,63.7
2023-04-11T11:33:03.136Z,63.7
2023-04-11T11:36:02.984Z,64.9
2023-04-11T11:39:03.023Z,64.9
2023-04-11T11:42:02.937Z,64.9
2023-04-11T11:45:02.969Z,64.9
2023-04-11T11:48:04.857Z,58.9
2023-04-11T11:51:02.965Z,58.9
2023-04-11T11:54:02.999Z,58.9
2023-04-11T11:57:03.064Z,58.9
2023-04-11T12:00:03.084Z,58.9
2023-04-11T12:03:03.437Z,58.9
2023-04-11T12:06:02.956Z,58.9
2023-04-11T12:09:03.067Z,55.3
2023-04-11T12:12:02.994Z,55.3
2023-04-11T12:15:03.013Z,55.3
2023-04-11T12:18:03.120Z,55.3
2023-04-11T12:21:02.886Z,55.3
2023-04-11T12:24:03.023Z,55.3
2023-04-11T12:30:03.095Z,55.3
2023-04-11T12:33:03.214Z,55.3
2023-04-11T12:36:03.094Z,55.3
2023-04-11T12:39:03.118Z,55.3
2023-04-11T12:42:03.010Z,55.3
2023-04-11T12:45:03.004Z,55.3
2023-04-11T12:48:03.232Z,55.3
2023-04-11T12:51:02.982Z,55.3
2023-04-11T12:54:03.026Z,55.3
2023-04-11T12:57:02.938Z,55.3
2023-04-11T13:00:03.055Z,55.3
2023-04-11T13:03:03.563Z,52.9
2023-04-11T13:06:03.033Z,52.9
2023-04-11T13:09:03.027Z,52.9
2023-04-11T13:12:03.021Z,52.9
2023-04-11T13:15:03.089Z,55.8
2023-04-11T13:18:03.089Z,55.8
2023-04-11T13:21:03.023Z,55.8
2023-04-11T13:24:03.003Z,55.8
2023-04-11T13:27:03.059Z,55.8
2023-04-11T13:30:03.020Z,55.8
2023-04-11T13:33:03.104Z,55.8
2023-04-11T13:36:03.015Z,55.8
2023-04-11T13:39:03.059Z,55.8
2023-04-11T13:42:03.050Z,55.8
2023-04-11T13:45:03.019Z,55.8
2023-04-11T13:48:03.095Z,55.8
2023-04-11T13:51:03.090Z,55.8
2023-04-11T13:54:03.117Z,57.2
2023-04-11T13:57:03.027Z,57.2
2023-04-11T14:00:03.169Z,57.2
2023-04-11T14:03:03.609Z,57.2
2023-04-11T14:06:02.986Z,57.2
2023-04-11T14:09:03.100Z,57.8
2023-04-11T14:12:03.407Z,59
2023-04-11T14:15:03.163Z,59.9
2023-04-11T14:18:03.261Z,59.2
2023-04-11T14:21:03.084Z,59.2
2023-04-11T14:24:03.104Z,59.2
2023-04-11T14:27:03.023Z,59.2
2023-04-11T14:30:03.008Z,64
2023-04-11T14:33:03.073Z,64
2023-04-11T14:36:03.049Z,64
2023-04-11T14:39:03.054Z,64
2023-04-11T14:42:02.936Z,64
2023-04-11T14:45:03.064Z,63.3
2023-04-11T14:48:03.202Z,63.3
2023-04-11T14:51:02.977Z,63.3
2023-04-11T14:54:02.935Z,63.7
2023-04-11T14:57:02.985Z,63.7
2023-04-11T15:00:03.026Z,63.7
2023-04-11T15:03:03.207Z,63.7
2023-04-11T15:06:03.095Z,63.7
2023-04-11T15:09:02.989Z,64
2023-04-11T15:12:02.983Z,63.1
2023-04-11T15:15:03.119Z,63.1
2023-04-11T15:18:03.089Z,63.1
2023-04-11T15:21:03.056Z,63.1
2023-04-11T15:24:03.012Z,67.9
2023-04-11T15:27:03.017Z,67.9
2023-04-11T15:30:02.992Z,67.9
2023-04-11T15:33:03.111Z,67.9
2023-04-11T15:36:03.304Z,67.9
2023-04-11T15:39:02.994Z,68.6
2023-04-11T15:42:02.973Z,68.6
2023-04-11T15:45:03.075Z,68.6
2023-04-11T15:48:03.231Z,68.6
2023-04-11T15:51:02.968Z,72.5
2023-04-11T15:54:03.001Z,72.5
2023-04-11T15:57:03.001Z,72.5
2023-04-11T16:00:03.178Z,73
2023-04-11T16:03:03.981Z,73
2023-04-11T16:06:03.034Z,73
2023-04-11T16:09:03.029Z,71.9
2023-04-11T16:12:03.025Z,71.9
2023-04-11T16:15:02.965Z,71.9
2023-04-11T16:18:03.435Z,71.9
2023-04-11T16:21:03.009Z,71.9
2023-04-11T16:24:03.145Z,71.9
2023-04-11T16:27:02.959Z,68.9
2023-04-11T16:30:03.132Z,68.9
2023-04-11T16:33:03.051Z,68.9
2023-04-11T16:36:03.362Z,68.9
2023-04-11T16:39:03.006Z,68.9
2023-04-11T16:42:02.986Z,68.9
2023-04-11T16:45:03.013Z,68.9
2023-04-11T16:48:03.315Z,68.9
2023-04-11T16:51:03.020Z,68.9
2023-04-11T16:54:03.020Z,68.9
2023-04-11T16:57:02.986Z,68.9
2023-04-11T17:00:03.288Z,68.9
2023-04-11T17:03:03.589Z,68.9
2023-04-11T17:06:03.016Z,68.9
2023-04-11T17:09:03.046Z,68.9
2023-04-11T17:12:03.026Z,68.9
2023-04-11T17:15:03.011Z,68.9
2023-04-11T17:18:03.118Z,68.9
2023-04-11T17:21:02.940Z,68.9
2023-04-11T17:24:03.743Z,68.9
2023-04-11T17:27:03.045Z,69.4
2023-04-11T17:30:03.215Z,69.4
2023-04-11T17:33:03.047Z,69.4
2023-04-11T17:36:03.260Z,69.4
2023-04-11T17:39:02.978Z,69.4
2023-04-11T17:42:02.969Z,69.4
2023-04-11T17:45:19.754Z,69.4
2023-04-11T17:48:03.179Z,69.4
2023-04-11T17:51:02.916Z,69.4
2023-04-11T17:54:03.030Z,69.4
2023-04-11T17:57:02.982Z,69.4
2023-04-11T18:00:03.106Z,69.4
2023-04-11T18:03:03.409Z,69.4
2023-04-11T18:06:03.036Z,70.9
2023-04-11T18:09:03.036Z,70.9
2023-04-11T18:12:03.040Z,70.9
2023-04-11T18:15:02.909Z,70.9
2023-04-11T18:18:03.053Z,70.9
2023-04-11T18:21:04.846Z,70.9
2023-04-11T18:24:02.932Z,71.7
2023-04-11T18:27:02.935Z,71.7
2023-04-11T18:30:03.003Z,71.7
2023-04-11T18:33:03.046Z,71.7
2023-04-11T18:36:03.047Z,71.7
2023-04-11T18:39:03.010Z,71.7
2023-04-11T18:42:03.085Z,71.7
2023-04-11T18:45:02.999Z,71.7
2023-04-11T18:48:03.347Z,72.5
2023-04-11T18:51:02.930Z,72.5
2023-04-11T18:54:02.924Z,72.5
2023-04-11T18:57:02.946Z,72.8
2023-04-11T19:00:09.222Z,72.8
2023-04-11T19:03:03.487Z,72.8
2023-04-11T19:06:03.658Z,72.8
2023-04-11T19:09:02.918Z,72.8
2023-04-11T19:12:03.035Z,72.8
2023-04-11T19:15:02.999Z,72.8
2023-04-11T19:18:03.176Z,73.2
2023-04-11T19:21:02.941Z,73.2
2023-04-11T19:24:02.950Z,73.2
2023-04-11T19:27:02.923Z,73.2
2023-04-11T19:30:02.900Z,73.2
2023-04-11T19:33:03.019Z,73.2
2023-04-11T19:36:03.067Z,73.5
2023-04-11T19:39:02.961Z,73.5
2023-04-11T19:42:02.912Z,73.5
2023-04-11T19:45:02.938Z,73.5
2023-04-11T19:48:03.088Z,73.5
2023-04-11T19:51:05.225Z,73.5
2023-04-11T19:54:02.923Z,73.5
2023-04-11T19:57:02.981Z,74.4
2023-04-11T20:00:03.010Z,74.4
2023-04-11T20:03:03.283Z,74.4
2023-04-11T20:06:04.513Z,74.4
2023-04-11T20:09:02.918Z,74.4
2023-04-11T20:12:02.915Z,74.4
2023-04-11T20:15:02.898Z,74.4
2023-04-11T20:18:03.102Z,74.4
2023-04-11T20:21:02.930Z,74.4
2023-04-11T20:24:02.950Z,74.4
2023-04-11T20:27:02.940Z,74.4
2023-04-11T20:30:02.988Z,74.4
2023-04-11T20:33:03.129Z,74.4
2023-04-11T20:36:03.038Z,74.4
2023-04-11T20:39:02.996Z,74.4
2023-04-11T20:42:02.876Z,76.1
2023-04-11T20:45:03.073Z,76.1
2023-04-11T20:48:03.132Z,76.1
2023-04-11T20:51:02.913Z,76.1
2023-04-11T20:54:03.034Z,76.1
2023-04-11T20:57:02.950Z,76.1
2023-04-11T21:00:02.940Z,76.1
2023-04-11T21:03:03.385Z,76.1
2023-04-11T21:06:02.969Z,76.1
2023-04-11T21:09:03.024Z,75.8
2023-04-11T21:12:02.888Z,75.8
2023-04-11T21:15:02.946Z,75.8
2023-04-11T21:18:03.859Z,75.8
2023-04-11T21:21:02.956Z,75.8
2023-04-11T21:24:02.954Z,75.8
2023-04-11T21:27:02.988Z,75.8
2023-04-11T21:30:03.006Z,75.8
2023-04-11T21:33:03.185Z,75.8
2023-04-11T21:36:03.003Z,75.8
2023-04-11T21:39:02.994Z,76.6
2023-04-11T21:42:02.932Z,76.6
2023-04-11T21:45:02.947Z,76.6
2023-04-11T21:48:03.064Z,76.6
2023-04-11T21:51:02.982Z,76.6
2023-04-11T21:54:02.976Z,76.6
2023-04-11T21:57:02.919Z,76.6
2023-04-11T22:00:03.556Z,76.6
2023-04-11T22:03:03.575Z,76.6
2023-04-11T22:06:02.955Z,76.6
2023-04-11T22:09:02.936Z,76.6
2023-04-11T22:12:02.909Z,76.6
2023-04-11T22:15:02.993Z,76.6
2023-04-11T22:18:03.040Z,78.4
2023-04-11T22:21:02.989Z,78.4
2023-04-11T22:24:03.138Z,78.4
2023-04-11T22:27:02.943Z,78.4
2023-04-11T22:30:02.970Z,78.4
2023-04-11T22:33:03.112Z,78.4
2023-04-11T22:36:03.032Z,78.4
2023-04-11T22:39:02.903Z,78.4
2023-04-11T22:42:02.971Z,78.4
2023-04-11T22:45:02.878Z,78.4
2023-04-11T22:48:03.053Z,77.4
2023-04-11T22:51:02.863Z,77.4
2023-04-11T22:54:02.969Z,77.4
2023-04-11T22:57:02.967Z,77.4
2023-04-11T23:00:03.107Z,77.4
2023-04-11T23:03:03.142Z,77.4
2023-04-11T23:06:02.980Z,77.4
2023-04-11T23:09:02.969Z,77.4
2023-04-11T23:12:02.987Z,77.4
2023-04-11T23:15:02.947Z,77.4
2023-04-11T23:18:03.189Z,78.6
2023-04-11T23:21:03.071Z,78.6
2023-04-11T23:24:02.926Z,78.6
2023-04-11T23:27:02.897Z,78.6
2023-04-11T23:30:03.014Z,78.6
2023-04-11T23:33:03.084Z,78.6
2023-04-11T23:36:03.017Z,78.6
2023-04-11T23:39:02.981Z,78.6
2023-04-11T23:42:02.958Z,78.5
2023-04-11T23:45:02.969Z,78.5
2023-04-11T23:48:03.037Z,78.5
2023-04-11T23:51:02.963Z,78.5
2023-04-11T23:54:03.326Z,78.5
2023-04-11T23:57:02.937Z,78.5
